Weather at Cougar Mountain Airfield

Public forecast

Using degrees Fahrenheit for public forecast. Weather courtesy of forecast.io.

Closest aviation weather report (METAR) to Cougar Mountain Airfield

Closest report is Gray Army Air Field, 14.1 nm (26.2 km) N.

2024/07/16 18:55 (retrieved 45 minutes ago)

KGRF 161855Z AUTO 31006KT 10SM CLR 28/13 A2998 RMK AO2 SLP154 T02790126

Closest aviation forecast (TAF) to Cougar Mountain Airfield

Forecast is more than 6 hours old.

Closest forecast is Gray Army Air Field, 14.1 nm (26.2 km) N.

2024/07/16 13:03 (retrieved 7 hours ago)

TAF TAF KGRF 161300Z 1613/1719 15005KT 9999 SKC QNH2998INS BECMG 1621/1622 01010KT 9999 SKC QNH2986INS TX30/1700Z TN11/1614Z